createdAt,value
2018-08-09T00:01:52.396Z,99.90
2018-08-09T00:04:21.639Z,99.90
2018-08-09T00:06:50.919Z,99.90
2018-08-09T00:09:21.026Z,99.90
2018-08-09T00:29:55.427Z,99.90
2018-08-09T00:32:24.671Z,99.90
2018-08-09T00:34:53.888Z,99.90
2018-08-09T00:37:24.080Z,99.90
2018-08-09T00:39:53.317Z,99.90
2018-08-09T00:42:22.549Z,99.90
2018-08-09T00:44:52.824Z,99.90
2018-08-09T00:47:22.111Z,99.90
2018-08-09T00:49:52.066Z,99.90
2018-08-09T00:52:23.082Z,99.90
2018-08-09T00:54:55.421Z,99.90
2018-08-09T00:59:53.443Z,99.90
2018-08-09T01:02:22.658Z,99.90
2018-08-09T01:04:51.930Z,99.90
2018-08-09T01:25:26.521Z,99.90
2018-08-09T01:27:56.382Z,99.90
2018-08-09T01:30:25.667Z,99.90
2018-08-09T01:32:56.268Z,99.90
2018-08-09T01:35:25.660Z,99.90
2018-08-09T01:37:54.957Z,99.90
2018-08-09T01:40:24.174Z,99.90
2018-08-09T02:00:59.168Z,99.90
2018-08-09T02:03:28.417Z,99.90
2018-08-09T02:05:57.742Z,99.90
2018-08-09T02:08:27.186Z,99.90
2018-08-09T02:10:56.957Z,99.90
2018-08-09T02:13:26.279Z,99.90
2018-08-09T02:15:55.518Z,99.90
2018-08-09T02:18:26.267Z,99.90
2018-08-09T02:20:55.498Z,99.90
2018-08-09T02:23:24.763Z,99.90
2018-08-09T02:25:54.145Z,99.90
2018-08-09T02:28:23.379Z,99.90
2018-08-09T02:30:54.264Z,99.90
2018-08-09T02:33:23.517Z,99.90
2018-08-09T02:35:53.171Z,99.90
2018-08-09T02:38:22.487Z,99.90
2018-08-09T02:40:51.717Z,99.90
2018-08-09T02:43:21.137Z,99.90
2018-08-09T02:45:50.530Z,99.90
2018-08-09T02:48:20.177Z,99.90
2018-08-09T02:50:50.181Z,99.90
2018-08-09T02:55:48.312Z,99.90
2018-08-09T02:58:17.593Z,99.90
2018-08-09T03:00:46.835Z,99.90
2018-08-09T03:03:16.178Z,99.90
2018-08-09T03:05:45.560Z,99.90
2018-08-09T03:08:14.869Z,99.90
2018-08-09T03:10:44.137Z,99.90
2018-08-09T03:13:14.922Z,99.90
2018-08-09T03:15:44.155Z,99.90
2018-08-09T03:18:13.422Z,99.90
2018-08-09T03:20:44.557Z,99.90
2018-08-09T03:41:17.949Z,99.90
2018-08-09T03:43:47.582Z,99.90
2018-08-09T03:46:16.818Z,99.90
2018-08-09T03:48:47.510Z,99.90
2018-08-09T04:09:21.298Z,99.90
2018-08-09T04:11:50.568Z,99.90
2018-08-09T04:14:19.856Z,99.90
2018-08-09T04:16:49.118Z,99.90
2018-08-09T04:19:18.390Z,99.90
2018-08-09T04:21:47.860Z,99.90
2018-08-09T04:24:17.138Z,99.90
2018-08-09T04:26:46.512Z,99.90
2018-08-09T04:29:15.703Z,99.90
2018-08-09T04:31:45.497Z,99.90
2018-08-09T04:34:14.803Z,99.90
2018-08-09T04:36:44.036Z,99.90
2018-08-09T04:39:13.370Z,99.90
2018-08-09T04:41:43.271Z,99.90
2018-08-09T04:44:12.668Z,99.90
2018-08-09T04:46:41.930Z,99.90
2018-08-09T04:49:11.396Z,99.90
2018-08-09T04:54:09.470Z,99.90
2018-08-09T04:56:38.699Z,99.90
2018-08-09T04:59:08.920Z,99.90
2018-08-09T05:01:38.223Z,99.90
2018-08-09T05:04:07.724Z,99.90
2018-08-09T05:06:37.098Z,99.90
2018-08-09T05:09:08.612Z,99.90
2018-08-09T05:11:38.034Z,99.90
2018-08-09T05:14:07.341Z,99.90
2018-08-09T05:16:36.954Z,99.90
2018-08-09T05:19:07.027Z,99.90
2018-08-09T05:21:36.322Z,99.90
2018-08-09T05:24:06.422Z,99.90
2018-08-09T05:26:35.750Z,99.90
2018-08-09T05:47:09.039Z,99.90
2018-08-09T05:49:38.910Z,99.90
2018-08-09T05:52:08.331Z,99.90
2018-08-09T05:54:37.629Z,99.90
2018-08-09T05:57:08.544Z,99.90
2018-08-09T05:59:37.821Z,99.90
2018-08-09T06:02:07.190Z,99.90
2018-08-09T06:04:37.353Z,99.90
2018-08-09T06:25:11.571Z,99.90
2018-08-09T06:27:40.837Z,99.90
2018-08-09T06:30:12.233Z,99.90
2018-08-09T06:32:42.134Z,99.90
2018-08-09T06:35:11.997Z,99.90
2018-08-09T06:55:45.105Z,99.90
2018-08-09T06:58:14.280Z,99.90
2018-08-09T07:00:43.569Z,99.90
2018-08-09T07:03:13.562Z,99.90
2018-08-09T07:23:47.537Z,99.90
2018-08-09T07:26:17.032Z,99.90
2018-08-09T07:28:46.415Z,99.90
2018-08-09T07:31:16.427Z,99.90
2018-08-09T07:33:45.889Z,99.90
2018-08-09T07:36:15.105Z,99.90
2018-08-09T07:38:44.510Z,99.90
2018-08-09T07:41:14.762Z,99.90
2018-08-09T07:43:44.075Z,99.90
2018-08-09T07:46:13.417Z,99.90
2018-08-09T07:48:42.721Z,99.90
2018-08-09T07:51:12.776Z,99.90
2018-08-09T07:53:42.456Z,99.90
2018-08-09T07:56:11.830Z,99.90
2018-08-09T07:58:41.580Z,99.90
2018-08-09T08:01:11.428Z,99.90
2018-08-09T08:03:40.748Z,99.90
2018-08-09T08:06:10.560Z,99.90
2018-08-09T08:08:39.870Z,99.90
2018-08-09T08:11:09.427Z,99.90
2018-08-09T08:13:38.722Z,99.90
2018-08-09T08:16:08.282Z,99.90
2018-08-09T08:18:37.520Z,99.90
2018-08-09T08:21:07.722Z,99.90
2018-08-09T08:23:37.033Z,99.90
2018-08-09T08:44:10.563Z,99.90
2018-08-09T08:46:39.834Z,99.90
2018-08-09T08:49:09.264Z,99.90
2018-08-09T08:51:38.558Z,99.90
2018-08-09T08:54:07.886Z,99.90
2018-08-09T08:56:39.238Z,99.90
2018-08-09T08:59:08.492Z,99.90
2018-08-09T09:01:37.765Z,99.90
2018-08-09T09:04:07.110Z,99.90
2018-08-09T09:06:36.370Z,99.90
2018-08-09T09:09:09.569Z,99.90
2018-08-09T09:11:38.743Z,99.90
2018-08-09T09:14:08.701Z,99.90
2018-08-09T09:16:38.133Z,99.90
2018-08-09T09:19:07.912Z,99.90
2018-08-09T09:21:37.341Z,99.90
2018-08-09T09:24:06.715Z,99.90
2018-08-09T09:44:41.270Z,99.90
2018-08-09T09:49:39.386Z,99.90
2018-08-09T09:52:08.641Z,99.90
2018-08-09T09:54:37.987Z,99.90
2018-08-09T10:15:12.562Z,99.90
2018-08-09T10:35:39.294Z,99.90
2018-08-09T10:38:09.533Z,99.10
2018-08-09T10:40:38.815Z,99.90
2018-08-09T11:01:13.045Z,92.90
2018-08-09T11:03:42.320Z,92.90
2018-08-09T11:24:16.323Z,88.60
2018-08-09T11:26:45.608Z,84.40
2018-08-09T11:47:20.285Z,77.40
2018-08-09T11:49:50.634Z,77.70
2018-08-09T11:52:19.913Z,74.00
2018-08-09T11:54:49.646Z,77.40
2018-08-09T11:57:19.151Z,78.10
2018-08-09T12:17:54.288Z,71.00
2018-08-09T12:38:29.139Z,66.20
2018-08-09T12:40:58.477Z,60.70
2018-08-09T12:43:28.976Z,59.80
2018-08-09T12:45:58.238Z,57.50
2018-08-09T13:06:25.527Z,58.20
2018-08-09T13:11:23.937Z,54.70
2018-08-09T13:13:53.227Z,54.60
2018-08-09T13:16:22.527Z,54.60
2018-08-09T13:18:52.032Z,54.30
2018-08-09T13:21:21.394Z,54.50
2018-08-09T13:41:55.056Z,56.90
2018-08-09T13:44:24.441Z,56.70
2018-08-09T13:46:55.080Z,58.30
2018-08-09T13:49:24.372Z,58.10
2018-08-09T13:51:54.060Z,60.20
2018-08-09T13:54:24.351Z,60.60
2018-08-09T13:56:53.585Z,60.60
2018-08-09T13:59:23.389Z,60.20
2018-08-09T14:01:53.362Z,59.80
2018-08-09T14:04:22.738Z,60.60
2018-08-09T14:07:21.689Z,60.30
2018-08-09T14:09:50.354Z,59.30
2018-08-09T14:12:19.802Z,58.70
2018-08-09T14:14:48.425Z,59.40
2018-08-09T14:17:17.764Z,58.60
2018-08-09T14:19:48.228Z,60.10
2018-08-09T14:22:16.891Z,60.70
2018-08-09T14:24:45.449Z,59.40
2018-08-09T14:27:14.474Z,59.90
2018-08-09T14:29:43.043Z,59.80
2018-08-09T14:32:11.655Z,58.80
2018-08-09T14:34:41.051Z,59.80
2018-08-09T14:37:09.669Z,59.80
2018-08-09T14:39:38.778Z,58.60
2018-08-09T14:42:07.295Z,57.50
2018-08-09T14:44:35.855Z,56.10
2018-08-09T14:47:05.107Z,55.00
2018-08-09T14:49:33.585Z,54.50
2018-08-09T14:52:02.929Z,54.70
2018-08-09T14:54:32.229Z,56.30
2018-08-09T14:57:01.559Z,58.60
2018-08-09T14:59:30.119Z,60.20
2018-08-09T15:01:58.588Z,61.40
2018-08-09T15:04:27.943Z,63.50
2018-08-09T15:06:56.539Z,65.00
2018-08-09T15:09:25.016Z,65.90
2018-08-09T15:11:54.281Z,67.40
2018-08-09T15:14:23.522Z,69.50
2018-08-09T15:16:52.113Z,71.10
2018-08-09T15:19:20.614Z,72.20
2018-08-09T15:21:49.177Z,72.90
2018-08-09T15:41:40.583Z,99.90
2018-08-09T15:44:09.624Z,99.90
2018-08-09T15:46:39.059Z,99.90
2018-08-09T16:06:28.819Z,99.90
2018-08-09T16:08:58.048Z,99.90
2018-08-09T16:11:27.472Z,99.90
2018-08-09T16:13:56.047Z,99.90
2018-08-09T16:16:26.543Z,99.90
2018-08-09T16:18:55.025Z,99.90
2018-08-09T16:21:23.580Z,99.90
2018-08-09T16:23:52.233Z,99.90
2018-08-09T16:26:21.617Z,99.90
2018-08-09T16:46:11.271Z,99.90
2018-08-09T16:48:39.776Z,99.90
2018-08-09T16:51:08.385Z,99.90
2018-08-09T16:53:36.924Z,99.90
2018-08-09T16:56:06.262Z,99.90
2018-08-09T16:58:34.903Z,99.90
2018-08-09T17:18:24.260Z,99.90
2018-08-09T17:38:15.524Z,99.90
2018-08-09T17:40:44.317Z,99.90
2018-08-09T17:43:12.816Z,99.90
2018-08-09T17:45:42.046Z,99.90
2018-08-09T17:48:10.729Z,99.90
2018-08-09T17:50:39.381Z,99.90
2018-08-09T17:53:09.425Z,99.90
2018-08-09T17:55:38.034Z,99.90
2018-08-09T17:58:06.801Z,99.90
2018-08-09T18:17:57.374Z,99.90
2018-08-09T18:20:29.970Z,99.90
2018-08-09T18:22:58.755Z,99.90
2018-08-09T18:25:28.674Z,99.90
2018-08-09T18:27:57.311Z,99.90
2018-08-09T18:47:47.868Z,99.90
2018-08-09T19:07:38.260Z,99.90
2018-08-09T19:10:10.600Z,99.90
2018-08-09T19:12:39.810Z,99.90
2018-08-09T19:15:09.929Z,99.90
2018-08-09T19:17:39.019Z,99.90
2018-08-09T19:20:25.523Z,99.90
2018-08-09T19:22:54.731Z,99.90
2018-08-09T19:25:23.500Z,99.90
2018-08-09T19:27:52.173Z,99.90
2018-08-09T19:30:22.361Z,99.90
2018-08-09T19:32:51.438Z,99.90
2018-08-09T19:35:20.966Z,99.90
2018-08-09T19:37:49.581Z,99.90
2018-08-09T19:40:20.512Z,99.90
2018-08-09T20:00:13.986Z,99.90
2018-08-09T20:02:42.874Z,99.90
2018-08-09T20:05:11.732Z,99.90
2018-08-09T20:07:40.696Z,99.90
2018-08-09T20:10:10.688Z,99.90
2018-08-09T20:12:39.955Z,99.90
2018-08-09T20:32:30.456Z,99.90
2018-08-09T20:34:58.932Z,99.90
2018-08-09T20:54:48.961Z,99.90
2018-08-09T20:57:17.440Z,99.90
2018-08-09T20:59:47.724Z,99.90
2018-08-09T21:02:16.341Z,99.90
2018-08-09T21:04:44.834Z,99.90
2018-08-09T21:07:13.362Z,99.90
2018-08-09T21:09:41.935Z,99.90
2018-08-09T21:29:31.872Z,99.90
2018-08-09T21:32:00.424Z,99.90
2018-08-09T21:34:28.924Z,99.90
2018-08-09T21:36:58.028Z,99.90
2018-08-09T21:39:26.670Z,99.90
2018-08-09T21:41:55.510Z,99.90
2018-08-09T21:44:24.159Z,99.90
2018-08-09T21:46:52.693Z,99.90
2018-08-09T21:49:21.813Z,99.90
2018-08-09T21:51:50.315Z,99.90
2018-08-09T21:54:20.181Z,99.90
2018-08-09T21:56:49.553Z,99.90
2018-08-09T21:59:18.775Z,99.90
2018-08-09T22:19:14.129Z,99.90
2018-08-09T22:21:48.725Z,99.90
2018-08-09T22:24:17.554Z,99.90
2018-08-09T22:26:46.077Z,99.90
2018-08-09T22:29:15.418Z,99.90
2018-08-09T22:31:44.071Z,99.90
2018-08-09T22:34:12.854Z,99.90
2018-08-09T22:36:41.309Z,99.90
2018-08-09T22:39:10.042Z,99.90
2018-08-09T22:41:38.642Z,99.90
2018-08-09T22:44:08.626Z,99.90
2018-08-09T22:46:37.164Z,99.90
2018-08-09T22:49:05.777Z,99.90
2018-08-09T22:51:34.346Z,99.90
2018-08-09T22:54:04.508Z,99.90
2018-08-09T22:56:33.674Z,99.90
2018-08-09T22:59:02.184Z,99.90
2018-08-09T23:01:30.758Z,99.90
2018-08-09T23:21:20.727Z,99.90
2018-08-09T23:23:49.938Z,99.90
2018-08-09T23:26:19.090Z,99.90
2018-08-09T23:28:47.654Z,99.90
2018-08-09T23:31:16.108Z,99.90
2018-08-09T23:33:44.663Z,99.90
2018-08-09T23:36:13.229Z,99.90
2018-08-09T23:38:41.900Z,99.90
2018-08-09T23:41:10.385Z,99.90
2018-08-09T23:43:38.928Z,99.90
2018-08-09T23:46:07.446Z,99.90
2018-08-09T23:48:36.011Z,99.90
2018-08-09T23:51:04.571Z,99.90
2018-08-09T23:53:34.360Z,99.90
2018-08-09T23:56:02.845Z,99.90
2018-08-09T23:58:31.309Z,99.90
